createdAt,value
2022-12-19T00:00:36.443Z,101486.25
2022-12-19T00:03:04.823Z,101491.44
2022-12-19T00:05:37.040Z,101495.53
2022-12-19T00:08:17.612Z,101498.69
2022-12-19T00:10:55.675Z,101502.53
2022-12-19T00:13:24.447Z,101508.59
2022-12-19T00:15:52.544Z,101514.28
2022-12-19T00:18:20.645Z,101523.03
2022-12-19T00:20:56.909Z,101516.31
2022-12-19T00:23:24.935Z,101511.59
2022-12-19T00:25:53.325Z,101507.97
2022-12-19T00:28:21.910Z,101509.03
2022-12-19T00:30:49.805Z,101506.09
2022-12-19T00:33:19.956Z,101509.03
2022-12-19T00:35:47.888Z,101505.44
2022-12-19T00:38:15.768Z,101507.25
2022-12-19T00:40:44.025Z,101515.63
2022-12-19T00:43:11.881Z,101504.03
2022-12-19T00:45:39.803Z,101505.41
2022-12-19T00:48:08.111Z,101498.91
2022-12-19T00:50:37.692Z,101506.59
2022-12-19T00:53:05.561Z,101506.34
2022-12-19T00:55:34.660Z,101499.09
2022-12-19T00:58:02.490Z,101502.09
2022-12-19T01:00:30.349Z,101500.50
2022-12-19T01:02:58.916Z,101503.00
2022-12-19T01:05:26.891Z,101501.72
2022-12-19T01:07:55.102Z,101495.03
2022-12-19T01:10:23.374Z,101487.19
2022-12-19T01:12:51.277Z,101487.72
2022-12-19T01:15:20.847Z,101482.41
2022-12-19T01:17:49.653Z,101496.75
2022-12-19T01:20:21.625Z,101495.63
2022-12-19T01:23:00.084Z,101477.69
2022-12-19T01:25:28.525Z,101465.19
2022-12-19T01:27:56.990Z,101460.53
2022-12-19T01:30:26.033Z,101459.25
2022-12-19T01:32:54.019Z,101465.03
2022-12-19T01:35:22.398Z,101449.84
2022-12-19T01:37:51.961Z,101450.03
2022-12-19T01:40:26.743Z,101451.03
2022-12-19T01:42:54.994Z,101450.13
2022-12-19T01:45:34.997Z,101447.37
2022-12-19T01:48:23.168Z,101435.91
2022-12-19T01:51:03.492Z,101453.16
2022-12-19T01:53:49.174Z,101449.59
2022-12-19T01:56:24.503Z,101451.69
2022-12-19T01:59:05.627Z,101453.56
2022-12-19T02:01:39.627Z,101452.00
2022-12-19T02:04:24.658Z,101455.88
2022-12-19T02:06:56.146Z,101456.03
2022-12-19T02:09:25.726Z,101458.50
2022-12-19T02:11:54.010Z,101453.16
2022-12-19T02:14:22.337Z,101451.47
2022-12-19T02:17:19.243Z,101454.81
2022-12-19T02:19:56.396Z,101457.28
2022-12-19T02:22:30.595Z,101461.69
2022-12-19T02:25:04.608Z,101466.59
2022-12-19T02:28:01.033Z,101466.16
2022-12-19T02:30:47.969Z,101458.16
2022-12-19T02:33:38.199Z,101465.19
2022-12-19T02:36:18.321Z,101468.47
2022-12-19T02:38:59.227Z,101476.22
2022-12-19T02:41:45.341Z,101475.66
2022-12-19T02:44:22.423Z,101479.69
2022-12-19T02:46:51.127Z,101477.03
2022-12-19T02:49:24.939Z,101475.16
2022-12-19T02:52:12.255Z,101468.06
2022-12-19T02:54:42.326Z,101469.69
2022-12-19T02:57:28.477Z,101467.28
2022-12-19T03:00:06.019Z,101464.59
2022-12-19T03:03:08.654Z,101467.22
2022-12-19T03:06:12.385Z,101467.72
2022-12-19T03:08:58.453Z,101451.63
2022-12-19T03:11:32.180Z,101462.31
2022-12-19T03:14:03.947Z,101461.03
2022-12-19T03:16:35.690Z,101455.94
2022-12-19T03:19:04.752Z,101445.25
2022-12-19T03:21:37.881Z,101445.88
2022-12-19T03:24:07.814Z,101438.47
2022-12-19T03:26:42.681Z,101430.31
2022-12-19T03:29:13.549Z,101426.41
2022-12-19T03:31:42.677Z,101428.50
2022-12-19T03:34:38.843Z,101427.97
2022-12-19T03:37:10.870Z,101422.34
2022-12-19T03:39:41.598Z,101412.91
2022-12-19T03:42:29.747Z,101424.47
2022-12-19T03:45:00.965Z,101420.06
2022-12-19T03:47:38.644Z,101421.44
2022-12-19T03:50:07.625Z,101420.81
2022-12-19T03:52:38.027Z,101420.72
2022-12-19T03:55:18.668Z,101425.06
2022-12-19T03:57:51.279Z,101431.00
2022-12-19T04:00:19.545Z,101422.00
2022-12-19T04:02:52.905Z,101429.38
2022-12-19T04:05:25.873Z,101436.34
2022-12-19T04:07:57.107Z,101433.44
2022-12-19T04:10:26.689Z,101428.38
2022-12-19T04:12:59.777Z,101435.31
2022-12-19T04:15:51.933Z,101423.37
2022-12-19T04:18:20.729Z,101429.59
2022-12-19T04:20:59.800Z,101435.31
2022-12-19T04:23:31.652Z,101438.97
2022-12-19T04:26:03.172Z,101437.44
2022-12-19T04:28:59.254Z,101431.44
2022-12-19T04:31:27.258Z,101432.06
2022-12-19T04:33:55.595Z,101434.16
2022-12-19T04:36:25.061Z,101424.16
2022-12-19T04:38:53.019Z,101433.37
2022-12-19T04:41:21.225Z,101432.44
2022-12-19T04:43:49.100Z,101427.75
2022-12-19T04:46:17.067Z,101420.13
2022-12-19T04:48:45.406Z,101430.16
2022-12-19T04:51:13.306Z,101415.44
2022-12-19T04:53:41.439Z,101415.50
2022-12-19T04:56:10.274Z,101424.53
2022-12-19T04:58:38.116Z,101434.78
2022-12-19T05:01:08.168Z,101432.19
2022-12-19T05:03:37.000Z,101434.38
2022-12-19T05:06:07.366Z,101434.66
2022-12-19T05:08:36.674Z,101436.97
2022-12-19T05:11:06.916Z,101440.41
2022-12-19T05:13:35.074Z,101429.72
2022-12-19T05:16:06.488Z,101442.78
2022-12-19T05:18:35.908Z,101447.78
2022-12-19T05:21:05.029Z,101447.37
2022-12-19T05:23:32.933Z,101449.66
2022-12-19T05:26:02.220Z,101446.22
2022-12-19T05:28:31.198Z,101440.31
2022-12-19T05:31:06.525Z,101434.41
2022-12-19T05:33:35.306Z,101438.56
2022-12-19T05:36:03.483Z,101430.19
2022-12-19T05:38:31.706Z,101425.03
2022-12-19T05:41:00.110Z,101425.84
2022-12-19T05:43:28.354Z,101426.25
2022-12-19T05:45:56.210Z,101423.97
2022-12-19T05:48:24.472Z,101428.47
2022-12-19T05:50:52.322Z,101428.12
2022-12-19T05:53:24.631Z,101426.25
2022-12-19T05:56:11.668Z,101416.06
2022-12-19T05:58:40.573Z,101419.44
2022-12-19T06:01:19.254Z,101420.81
2022-12-19T06:03:47.939Z,101429.28
2022-12-19T06:06:19.044Z,101428.50
2022-12-19T06:08:47.320Z,101430.06
2022-12-19T06:11:15.378Z,101439.69
2022-12-19T06:13:43.261Z,101447.22
2022-12-19T06:16:14.059Z,101448.28
2022-12-19T06:18:44.766Z,101442.88
2022-12-19T06:21:15.668Z,101442.00
2022-12-19T06:23:44.374Z,101440.28
2022-12-19T06:26:19.401Z,101441.41
2022-12-19T06:28:49.656Z,101445.34
2022-12-19T06:31:18.185Z,101439.16
2022-12-19T06:33:46.472Z,101431.62
2022-12-19T06:36:16.771Z,101437.72
2022-12-19T06:38:44.835Z,101442.97
2022-12-19T06:41:32.030Z,101455.75
2022-12-19T06:44:01.230Z,101449.72
2022-12-19T06:46:29.355Z,101445.56
2022-12-19T06:48:57.344Z,101444.09
2022-12-19T06:51:25.897Z,101440.87
2022-12-19T06:53:54.266Z,101443.00
2022-12-19T06:56:22.371Z,101432.81
2022-12-19T06:58:51.331Z,101439.72
2022-12-19T07:01:21.252Z,101439.03
2022-12-19T07:03:49.518Z,101445.34
2022-12-19T07:06:17.771Z,101450.91
2022-12-19T07:08:45.752Z,101448.41
2022-12-19T07:11:13.713Z,101455.69
2022-12-19T07:13:41.966Z,101454.31
2022-12-19T07:16:09.948Z,101456.63
2022-12-19T07:18:39.838Z,101461.91
2022-12-19T07:21:09.061Z,101458.53
2022-12-19T07:23:37.354Z,101456.97
2022-12-19T07:26:05.651Z,101454.84
2022-12-19T07:28:34.130Z,101450.72
2022-12-19T07:31:02.044Z,101443.28
2022-12-19T07:33:29.956Z,101459.63
2022-12-19T07:35:58.211Z,101451.66
2022-12-19T07:38:26.073Z,101455.38
2022-12-19T07:40:54.023Z,101447.59
2022-12-19T07:43:22.429Z,101451.91
2022-12-19T07:45:55.364Z,101449.53
2022-12-19T07:48:24.212Z,101446.16
2022-12-19T07:50:52.267Z,101446.31
2022-12-19T07:53:20.105Z,101447.16
2022-12-19T07:55:52.300Z,101461.47
2022-12-19T07:58:20.811Z,101473.09
2022-12-19T08:00:56.952Z,101469.44
2022-12-19T08:03:25.747Z,101469.22
2022-12-19T08:05:53.776Z,101476.41
2022-12-19T08:08:21.767Z,101480.19
2022-12-19T08:10:50.114Z,101478.22
2022-12-19T08:13:18.095Z,101479.38
2022-12-19T08:15:46.294Z,101489.81
2022-12-19T08:18:14.786Z,101487.37
2022-12-19T08:20:45.827Z,101494.03
2022-12-19T08:23:13.890Z,101495.25
2022-12-19T08:25:42.361Z,101486.28
2022-12-19T08:28:10.384Z,101484.87
2022-12-19T08:30:40.204Z,101470.41
2022-12-19T08:33:08.659Z,101476.81
2022-12-19T08:35:37.414Z,101474.81
2022-12-19T08:38:05.619Z,101463.47
2022-12-19T08:40:34.297Z,101467.53
2022-12-19T08:43:02.360Z,101466.84
2022-12-19T08:45:30.813Z,101461.25
2022-12-19T08:47:59.054Z,101452.28
2022-12-19T08:50:26.985Z,101453.66
2022-12-19T08:52:55.016Z,101457.81
2022-12-19T08:55:24.978Z,101456.50
2022-12-19T08:57:55.213Z,101465.41
2022-12-19T09:00:23.686Z,101468.25
2022-12-19T09:02:52.756Z,101470.63
2022-12-19T09:05:58.414Z,101463.06
2022-12-19T09:08:09.208Z,101455.31
2022-12-19T09:10:38.111Z,101447.72
2022-12-19T09:13:06.339Z,101438.06
2022-12-19T09:15:34.679Z,101439.44
2022-12-19T09:18:04.352Z,101444.56
2022-12-19T09:20:32.333Z,101455.44
2022-12-19T09:23:00.719Z,101459.53
2022-12-19T09:25:28.623Z,101469.84
2022-12-19T09:28:26.273Z,101473.78
2022-12-19T09:30:45.240Z,101476.56
2022-12-19T09:33:13.332Z,101465.41
2022-12-19T09:35:50.305Z,101450.09
2022-12-19T09:38:21.522Z,101454.19
2022-12-19T09:41:29.988Z,101434.78
2022-12-19T09:43:58.422Z,101437.97
2022-12-19T09:46:37.810Z,101422.38
2022-12-19T09:49:17.236Z,101418.25
2022-12-19T09:52:02.605Z,101420.53
2022-12-19T09:55:01.790Z,101424.59
2022-12-19T09:57:52.269Z,101412.84
2022-12-19T10:00:22.625Z,101414.94
2022-12-19T10:02:58.460Z,101411.38
2022-12-19T10:07:06.979Z,101425.34
2022-12-19T10:08:46.765Z,101410.13
2022-12-19T10:12:40.261Z,101415.22
2022-12-19T10:15:09.353Z,101397.03
2022-12-19T10:17:58.647Z,101388.75
2022-12-19T10:20:38.877Z,101400.03
2022-12-19T10:23:32.044Z,101397.25
2022-12-19T10:26:29.786Z,101398.22
2022-12-19T10:29:17.682Z,101391.56
2022-12-19T10:31:55.473Z,101377.84
2022-12-19T10:34:34.309Z,101377.72
2022-12-19T10:37:39.822Z,101392.53
2022-12-19T10:40:28.317Z,101379.78
2022-12-19T10:43:30.399Z,101371.75
2022-12-19T10:46:08.046Z,101372.28
2022-12-19T10:48:36.368Z,101370.44
2022-12-19T10:51:06.761Z,101373.16
2022-12-19T10:53:35.184Z,101367.88
2022-12-19T10:56:13.505Z,101359.41
2022-12-19T10:58:44.530Z,101357.22
2022-12-19T11:01:17.302Z,101359.31
2022-12-19T11:03:50.228Z,101352.25
2022-12-19T11:06:42.864Z,101353.38
2022-12-19T11:09:42.588Z,101359.88
2022-12-19T11:15:44.018Z,101344.47
2022-12-19T11:19:26.795Z,101345.69
2022-12-19T11:27:10.532Z,101353.66
2022-12-19T11:29:33.803Z,101354.69
2022-12-19T11:29:35.302Z,101342.69
2022-12-19T11:29:44.348Z,101357.34
2022-12-19T11:32:44.490Z,101334.00
2022-12-19T11:35:16.806Z,101330.94
2022-12-19T11:38:06.246Z,101334.03
2022-12-19T11:40:49.204Z,101327.69
2022-12-19T11:43:46.219Z,101323.38
2022-12-19T11:46:50.580Z,101314.63
2022-12-19T11:49:28.208Z,101314.00
2022-12-19T11:53:02.974Z,101308.41
2022-12-19T11:55:52.280Z,101308.69
2022-12-19T11:58:23.286Z,101297.09
2022-12-19T12:01:13.213Z,101299.34
2022-12-19T12:04:04.174Z,101297.91
2022-12-19T12:06:34.961Z,101308.53
2022-12-19T12:13:13.576Z,101302.38
2022-12-19T12:20:40.107Z,101287.13
2022-12-19T12:27:48.181Z,101287.59
2022-12-19T12:31:16.208Z,101277.37
2022-12-19T12:31:23.448Z,101288.59
2022-12-19T12:31:26.086Z,101278.31
2022-12-19T12:31:44.836Z,101278.19
2022-12-19T12:31:58.103Z,101283.81
2022-12-19T12:35:51.082Z,101278.59
2022-12-19T12:40:09.323Z,101288.97
2022-12-19T12:42:57.577Z,101292.72
2022-12-19T12:45:41.095Z,101287.66
2022-12-19T12:48:30.464Z,101284.69
2022-12-19T12:51:00.876Z,101279.69
2022-12-19T12:53:33.665Z,101278.19
2022-12-19T12:56:05.700Z,101271.00
2022-12-19T12:58:45.645Z,101270.47
2022-12-19T13:01:29.015Z,101269.62
2022-12-19T13:03:59.749Z,101261.56
2022-12-19T13:06:33.671Z,101246.50
2022-12-19T13:09:20.964Z,101257.84
2022-12-19T13:12:11.808Z,101262.66
2022-12-19T13:14:39.864Z,101266.19
2022-12-19T13:17:32.062Z,101258.38
2022-12-19T13:20:05.698Z,101256.75
2022-12-19T13:22:33.934Z,101259.63
2022-12-19T13:25:02.043Z,101256.31
2022-12-19T13:27:38.224Z,101249.16
2022-12-19T13:30:14.411Z,101249.81
2022-12-19T13:32:44.200Z,101249.56
2022-12-19T13:36:12.110Z,101248.00
2022-12-19T13:39:54.017Z,101238.19
2022-12-19T13:41:48.710Z,101237.06
2022-12-19T13:44:21.612Z,101222.09
2022-12-19T13:46:50.252Z,101222.47
2022-12-19T13:49:33.261Z,101224.44
2022-12-19T13:52:04.771Z,101232.94
2022-12-19T13:54:46.946Z,101249.63
2022-12-19T13:57:30.288Z,101246.22
2022-12-19T14:00:01.802Z,101240.34
2022-12-19T14:02:44.057Z,101233.09
2022-12-19T14:06:14.540Z,101228.97
2022-12-19T14:08:22.412Z,101233.00
2022-12-19T14:11:37.764Z,101234.72
2022-12-19T14:14:17.792Z,101232.03
2022-12-19T14:16:52.206Z,101229.75
2022-12-19T14:19:31.091Z,101225.84
2022-12-19T14:22:25.545Z,101232.38
2022-12-19T14:25:07.009Z,101224.75
2022-12-19T14:28:24.034Z,101223.87
2022-12-19T14:30:52.788Z,101210.44
2022-12-19T14:33:44.185Z,101225.56
2022-12-19T14:36:16.498Z,101229.66
2022-12-19T14:39:27.054Z,101219.75
2022-12-19T14:42:03.579Z,101228.84
2022-12-19T14:52:35.005Z,101229.44
2022-12-19T14:54:02.055Z,101224.22
2022-12-19T14:54:22.388Z,101237.37
2022-12-19T14:54:32.219Z,101220.34
2022-12-19T14:56:45.100Z,101227.31
2022-12-19T14:59:29.077Z,101232.12
2022-12-19T15:02:06.882Z,101230.84
2022-12-19T15:04:54.542Z,101223.59
2022-12-19T15:07:26.207Z,101232.78
2022-12-19T15:11:09.293Z,101239.56
2022-12-19T15:14:48.130Z,101238.34
2022-12-19T15:16:29.238Z,101236.06
2022-12-19T15:19:01.308Z,101241.31
2022-12-19T15:21:30.728Z,101231.62
2022-12-19T15:23:59.082Z,101235.97
2022-12-19T15:26:29.917Z,101236.41
2022-12-19T15:28:58.731Z,101238.97
2022-12-19T15:31:38.898Z,101244.41
2022-12-19T15:34:37.248Z,101251.44
2022-12-19T15:37:14.427Z,101253.97
2022-12-19T15:39:43.856Z,101256.69
2022-12-19T15:42:21.637Z,101257.66
2022-12-19T15:44:50.294Z,101251.69
2022-12-19T15:47:30.628Z,101251.78
2022-12-19T15:50:04.476Z,101243.22
2022-12-19T15:52:32.684Z,101241.62
2022-12-19T15:55:01.099Z,101242.94
2022-12-19T15:57:34.899Z,101238.91
2022-12-19T16:00:08.755Z,101235.69
2022-12-19T16:03:13.233Z,101219.66
2022-12-19T16:05:26.819Z,101226.41
2022-12-19T16:07:57.473Z,101239.22
2022-12-19T16:10:26.057Z,101228.69
2022-12-19T16:12:56.214Z,101232.31
2022-12-19T16:15:25.768Z,101230.09
2022-12-19T16:17:54.956Z,101232.47
2022-12-19T16:20:27.108Z,101225.59
2022-12-19T16:22:57.500Z,101224.31
2022-12-19T16:25:34.088Z,101230.50
2022-12-19T16:28:02.433Z,101225.44
2022-12-19T16:30:32.983Z,101219.75
2022-12-19T16:33:01.449Z,101221.00
2022-12-19T16:36:02.433Z,101211.06
2022-12-19T16:38:19.321Z,101214.66
2022-12-19T16:40:49.612Z,101200.34
2022-12-19T16:43:31.012Z,101204.41
2022-12-19T16:46:01.393Z,101198.88
2022-12-19T16:48:30.410Z,101195.84
2022-12-19T16:50:59.774Z,101197.22
2022-12-19T16:53:28.411Z,101197.44
2022-12-19T16:55:57.022Z,101187.62
2022-12-19T16:58:27.049Z,101198.69
2022-12-19T17:00:56.106Z,101203.81
2022-12-19T17:03:36.315Z,101203.75
2022-12-19T17:06:04.982Z,101206.44
2022-12-19T17:08:32.914Z,101202.22
2022-12-19T17:11:00.927Z,101199.50
2022-12-19T17:13:29.585Z,101210.28
2022-12-19T17:15:58.642Z,101211.25
2022-12-19T17:18:33.759Z,101214.06
2022-12-19T17:21:02.338Z,101211.81
2022-12-19T17:23:32.825Z,101210.91
2022-12-19T17:26:01.473Z,101209.72
2022-12-19T17:28:30.040Z,101212.09
2022-12-19T17:31:00.376Z,101219.19
2022-12-19T17:33:33.825Z,101223.75
2022-12-19T17:36:02.600Z,101224.56
2022-12-19T17:38:31.072Z,101226.16
2022-12-19T17:40:59.734Z,101222.25
2022-12-19T17:43:27.707Z,101208.31
2022-12-19T17:45:56.252Z,101208.41
2022-12-19T17:48:29.991Z,101224.34
2022-12-19T17:50:58.943Z,101229.34
2022-12-19T17:53:27.081Z,101222.53
2022-12-19T17:55:54.991Z,101225.75
2022-12-19T17:58:23.435Z,101218.56
2022-12-19T18:00:51.807Z,101216.34
2022-12-19T18:03:23.353Z,101221.69
2022-12-19T18:05:55.428Z,101228.09
2022-12-19T18:08:33.391Z,101229.78
2022-12-19T18:11:03.289Z,101230.34
2022-12-19T18:13:32.553Z,101244.03
2022-12-19T18:16:02.082Z,101220.63
2022-12-19T18:18:35.414Z,101214.28
2022-12-19T18:21:04.570Z,101222.56
2022-12-19T18:23:33.328Z,101219.66
2022-12-19T18:26:02.643Z,101222.00
2022-12-19T18:28:31.205Z,101224.34
2022-12-19T18:31:02.721Z,101221.00
2022-12-19T18:33:37.517Z,101217.03
2022-12-19T18:36:07.004Z,101210.34
2022-12-19T18:38:35.521Z,101212.84
2022-12-19T18:41:03.658Z,101197.00
2022-12-19T18:43:32.469Z,101195.97
2022-12-19T18:46:00.917Z,101198.97
2022-12-19T18:48:34.483Z,101188.06
2022-12-19T18:51:03.796Z,101186.56
2022-12-19T18:53:35.515Z,101176.22
2022-12-19T18:56:06.235Z,101173.63
2022-12-19T18:58:34.631Z,101171.19
2022-12-19T19:01:04.163Z,101160.38
2022-12-19T19:03:39.936Z,101151.47
2022-12-19T19:06:37.894Z,101158.06
2022-12-19T19:09:16.124Z,101157.44
2022-12-19T19:11:45.937Z,101151.78
2022-12-19T19:14:14.882Z,101150.78
2022-12-19T19:16:43.035Z,101148.00
2022-12-19T19:19:12.648Z,101161.81
2022-12-19T19:21:41.948Z,101160.44
2022-12-19T19:24:16.125Z,101165.13
2022-12-19T19:26:44.807Z,101155.53
2022-12-19T19:29:15.571Z,101155.72
2022-12-19T19:31:46.294Z,101159.16
2022-12-19T19:34:21.857Z,101154.72
2022-12-19T19:36:53.848Z,101146.84
2022-12-19T19:39:23.125Z,101142.25
2022-12-19T19:41:51.065Z,101138.28
2022-12-19T19:44:18.955Z,101138.75
2022-12-19T19:46:47.356Z,101136.28
2022-12-19T19:49:16.002Z,101130.41
2022-12-19T19:51:43.898Z,101137.22
2022-12-19T19:54:12.330Z,101139.16
2022-12-19T19:56:40.486Z,101141.47
2022-12-19T19:59:08.691Z,101139.09
2022-12-19T20:01:37.090Z,101135.44
2022-12-19T20:04:05.786Z,101143.22
2022-12-19T20:06:33.756Z,101142.06
2022-12-19T20:09:01.657Z,101148.13
2022-12-19T20:11:30.762Z,101147.56
2022-12-19T20:13:58.552Z,101149.44
2022-12-19T20:16:26.700Z,101153.66
2022-12-19T20:18:55.113Z,101156.22
2022-12-19T20:21:24.796Z,101158.78
2022-12-19T20:23:52.868Z,101162.34
2022-12-19T20:26:21.295Z,101157.38
2022-12-19T20:28:50.803Z,101159.47
2022-12-19T20:31:20.773Z,101156.94
2022-12-19T20:33:50.681Z,101149.69
2022-12-19T20:36:18.980Z,101150.53
2022-12-19T20:38:47.510Z,101145.69
2022-12-19T20:41:16.795Z,101137.50
2022-12-19T20:43:45.345Z,101124.87
2022-12-19T20:46:16.805Z,101129.09
2022-12-19T20:48:46.206Z,101120.97
2022-12-19T20:51:15.186Z,101127.22
2022-12-19T20:53:43.993Z,101125.41
2022-12-19T20:56:17.378Z,101126.44
2022-12-19T20:58:46.428Z,101133.34
2022-12-19T21:01:20.472Z,101128.22
2022-12-19T21:03:49.363Z,101133.44
2022-12-19T21:06:19.632Z,101134.31
2022-12-19T21:08:47.896Z,101124.94
2022-12-19T21:11:16.300Z,101131.13
2022-12-19T21:13:45.038Z,101116.72
2022-12-19T21:16:15.686Z,101117.44
2022-12-19T21:18:45.063Z,101130.22
2022-12-19T21:21:21.353Z,101131.38
2022-12-19T21:23:50.483Z,101126.53
2022-12-19T21:26:19.379Z,101130.00
2022-12-19T21:28:47.440Z,101121.59
2022-12-19T21:31:19.002Z,101126.62
2022-12-19T21:33:47.966Z,101116.38
2022-12-19T21:36:21.021Z,101118.56
2022-12-19T21:38:51.333Z,101125.00
2022-12-19T21:41:19.637Z,101123.28
2022-12-19T21:43:49.508Z,101122.38
2022-12-19T21:46:18.331Z,101112.66
2022-12-19T21:48:48.376Z,101111.44
2022-12-19T21:51:18.847Z,101127.75
2022-12-19T21:53:47.956Z,101118.50
2022-12-19T21:56:18.609Z,101106.81
2022-12-19T21:58:47.094Z,101115.84
2022-12-19T22:01:15.868Z,101125.66
2022-12-19T22:03:44.578Z,101132.37
2022-12-19T22:06:21.002Z,101117.06
2022-12-19T22:08:53.952Z,101122.63
2022-12-19T22:11:22.090Z,101110.22
2022-12-19T22:13:50.726Z,101103.47
2022-12-19T22:16:19.047Z,101108.66
2022-12-19T22:18:47.340Z,101098.50
2022-12-19T22:21:15.877Z,101102.06
2022-12-19T22:23:44.180Z,101096.03
2022-12-19T22:26:17.436Z,101090.59
2022-12-19T22:28:47.837Z,101080.03
2022-12-19T22:31:25.286Z,101078.00
2022-12-19T22:34:01.516Z,101076.53
2022-12-19T22:36:31.605Z,101071.88
2022-12-19T22:39:01.422Z,101078.06
2022-12-19T22:41:29.753Z,101065.88
2022-12-19T22:43:57.731Z,101058.03
2022-12-19T22:46:32.114Z,101041.34
2022-12-19T22:49:02.667Z,101035.56
2022-12-19T22:51:32.169Z,101041.34
2022-12-19T22:54:00.497Z,101032.84
2022-12-19T22:56:30.269Z,101031.69
2022-12-19T22:59:04.888Z,101039.03
2022-12-19T23:01:37.229Z,101030.28
2022-12-19T23:04:07.075Z,101021.59
2022-12-19T23:06:36.489Z,101012.38
2022-12-19T23:09:06.608Z,101022.12
2022-12-19T23:11:37.617Z,101025.72
2022-12-19T23:14:06.988Z,101035.03
2022-12-19T23:16:35.889Z,101035.06
2022-12-19T23:19:05.438Z,101019.87
2022-12-19T23:21:33.398Z,101025.88
2022-12-19T23:24:01.725Z,101018.22
2022-12-19T23:26:33.352Z,101014.22
2022-12-19T23:29:10.010Z,101023.56
2022-12-19T23:31:40.538Z,101023.56
2022-12-19T23:34:10.781Z,101027.81
2022-12-19T23:37:09.545Z,101029.03
2022-12-19T23:39:27.197Z,101031.16
2022-12-19T23:41:55.040Z,101021.09
2022-12-19T23:44:23.096Z,101018.09
2022-12-19T23:46:51.476Z,101007.31
2022-12-19T23:49:19.372Z,101000.31
2022-12-19T23:51:47.222Z,100995.66
2022-12-19T23:54:15.643Z,100998.12
2022-12-19T23:56:43.512Z,100993.72
2022-12-19T23:59:11.333Z,101003.78
